sensor_id;sensor_type;location;lat;lon;timestamp;P1;durP1;ratioP1;P2;durP2;ratioP2
57105;SDS011;62662;56.788;23.942;2022-09-28T00:03:43;6.47;;;4.20;;
57105;SDS011;62662;56.788;23.942;2022-09-28T00:06:12;5.15;;;4.65;;
57105;SDS011;62662;56.788;23.942;2022-09-28T00:08:41;6.43;;;4.32;;
57105;SDS011;62662;56.788;23.942;2022-09-28T00:11:09;7.32;;;4.45;;
57105;SDS011;62662;56.788;23.942;2022-09-28T00:13:39;4.45;;;4.05;;
57105;SDS011;62662;56.788;23.942;2022-09-28T00:16:08;6.20;;;4.18;;
57105;SDS011;62662;56.788;23.942;2022-09-28T00:18:37;5.38;;;4.30;;
57105;SDS011;62662;56.788;23.942;2022-09-28T00:23:33;5.43;;;3.88;;
57105;SDS011;62662;56.788;23.942;2022-09-28T00:26:21;5.80;;;4.47;;
57105;SDS011;62662;56.788;23.942;2022-09-28T00:28:56;5.45;;;4.35;;
57105;SDS011;62662;56.788;23.942;2022-09-28T00:31:25;7.15;;;4.25;;
57105;SDS011;62662;56.788;23.942;2022-09-28T00:33:54;6.38;;;4.90;;
57105;SDS011;62662;56.788;23.942;2022-09-28T00:36:26;5.95;;;4.53;;
57105;SDS011;62662;56.788;23.942;2022-09-28T00:38:55;6.93;;;4.45;;
57105;SDS011;62662;56.788;23.942;2022-09-28T00:41:23;5.57;;;4.53;;
57105;SDS011;62662;56.788;23.942;2022-09-28T00:43:52;6.05;;;4.65;;
57105;SDS011;62662;56.788;23.942;2022-09-28T00:46:30;8.30;;;4.20;;
57105;SDS011;62662;56.788;23.942;2022-09-28T00:49:03;6.18;;;4.50;;
57105;SDS011;62662;56.788;23.942;2022-09-28T00:51:33;7.63;;;4.80;;
57105;SDS011;62662;56.788;23.942;2022-09-28T00:54:04;10.45;;;4.95;;
57105;SDS011;62662;56.788;23.942;2022-09-28T00:56:34;7.50;;;4.93;;
57105;SDS011;62662;56.788;23.942;2022-09-28T00:59:03;5.43;;;4.22;;
57105;SDS011;62662;56.788;23.942;2022-09-28T01:01:34;6.55;;;4.50;;
57105;SDS011;62662;56.788;23.942;2022-09-28T01:04:01;5.35;;;4.10;;
57105;SDS011;62662;56.788;23.942;2022-09-28T01:06:31;5.60;;;4.40;;
57105;SDS011;62662;56.788;23.942;2022-09-28T01:09:06;6.68;;;4.55;;
57105;SDS011;62662;56.788;23.942;2022-09-28T01:11:36;9.90;;;4.68;;
57105;SDS011;62662;56.788;23.942;2022-09-28T01:14:05;7.10;;;4.35;;
57105;SDS011;62662;56.788;23.942;2022-09-28T01:22:25;5.22;;;4.43;;
57105;SDS011;62662;56.788;23.942;2022-09-28T01:27:35;5.95;;;4.00;;
57105;SDS011;62662;56.788;23.942;2022-09-28T01:30:27;5.57;;;4.07;;
57105;SDS011;62662;56.788;23.942;2022-09-28T01:33:06;7.13;;;4.45;;
57105;SDS011;62662;56.788;23.942;2022-09-28T01:35:40;6.10;;;4.38;;
57105;SDS011;62662;56.788;23.942;2022-09-28T01:38:14;5.35;;;4.75;;
57105;SDS011;62662;56.788;23.942;2022-09-28T01:40:45;5.45;;;4.63;;
57105;SDS011;62662;56.788;23.942;2022-09-28T01:43:14;4.82;;;4.03;;
57105;SDS011;62662;56.788;23.942;2022-09-28T01:45:45;5.25;;;4.05;;
57105;SDS011;62662;56.788;23.942;2022-09-28T01:48:25;7.30;;;4.28;;
57105;SDS011;62662;56.788;23.942;2022-09-28T01:50:58;4.55;;;4.15;;
57105;SDS011;62662;56.788;23.942;2022-09-28T01:53:31;5.28;;;3.85;;
57105;SDS011;62662;56.788;23.942;2022-09-28T01:56:12;7.05;;;4.07;;
57105;SDS011;62662;56.788;23.942;2022-09-28T01:58:51;5.10;;;3.97;;
57105;SDS011;62662;56.788;23.942;2022-09-28T02:01:39;7.13;;;4.07;;
57105;SDS011;62662;56.788;23.942;2022-09-28T02:04:19;5.55;;;4.30;;
57105;SDS011;62662;56.788;23.942;2022-09-28T02:06:53;5.32;;;3.75;;
57105;SDS011;62662;56.788;23.942;2022-09-28T02:09:34;7.38;;;3.85;;
57105;SDS011;62662;56.788;23.942;2022-09-28T02:15:11;6.32;;;4.10;;
57105;SDS011;62662;56.788;23.942;2022-09-28T02:18:05;5.25;;;4.30;;
57105;SDS011;62662;56.788;23.942;2022-09-28T02:20:32;7.35;;;4.57;;
57105;SDS011;62662;56.788;23.942;2022-09-28T02:23:01;5.30;;;4.10;;
57105;SDS011;62662;56.788;23.942;2022-09-28T02:25:36;4.78;;;4.18;;
57105;SDS011;62662;56.788;23.942;2022-09-28T02:28:11;7.20;;;4.30;;
57105;SDS011;62662;56.788;23.942;2022-09-28T02:30:40;7.72;;;4.20;;
57105;SDS011;62662;56.788;23.942;2022-09-28T02:33:13;7.63;;;4.20;;
57105;SDS011;62662;56.788;23.942;2022-09-28T02:35:43;4.80;;;4.13;;
57105;SDS011;62662;56.788;23.942;2022-09-28T02:38:11;5.88;;;4.50;;
57105;SDS011;62662;56.788;23.942;2022-09-28T02:40:39;5.03;;;4.53;;
57105;SDS011;62662;56.788;23.942;2022-09-28T02:43:12;8.27;;;4.60;;
57105;SDS011;62662;56.788;23.942;2022-09-28T02:45:58;7.32;;;4.28;;
57105;SDS011;62662;56.788;23.942;2022-09-28T02:48:51;6.45;;;4.93;;
57105;SDS011;62662;56.788;23.942;2022-09-28T03:00:04;8.77;;;5.40;;
57105;SDS011;62662;56.788;23.942;2022-09-28T03:11:09;6.30;;;4.47;;
57105;SDS011;62662;56.788;23.942;2022-09-28T03:13:41;4.65;;;4.05;;
57105;SDS011;62662;56.788;23.942;2022-09-28T03:16:10;4.75;;;4.13;;
57105;SDS011;62662;56.788;23.942;2022-09-28T03:18:39;4.80;;;4.00;;
57105;SDS011;62662;56.788;23.942;2022-09-28T03:21:06;4.95;;;4.10;;
57105;SDS011;62662;56.788;23.942;2022-09-28T03:23:34;4.43;;;3.90;;
57105;SDS011;62662;56.788;23.942;2022-09-28T03:26:01;5.10;;;4.32;;
57105;SDS011;62662;56.788;23.942;2022-09-28T03:28:27;5.03;;;4.50;;
57105;SDS011;62662;56.788;23.942;2022-09-28T03:30:55;5.35;;;4.10;;
57105;SDS011;62662;56.788;23.942;2022-09-28T03:33:22;8.27;;;4.30;;
57105;SDS011;62662;56.788;23.942;2022-09-28T03:35:49;6.13;;;4.50;;
57105;SDS011;62662;56.788;23.942;2022-09-28T03:38:17;6.50;;;4.35;;
57105;SDS011;62662;56.788;23.942;2022-09-28T03:40:54;18.80;;;4.57;;
57105;SDS011;62662;56.788;23.942;2022-09-28T03:43:23;6.22;;;4.15;;
57105;SDS011;62662;56.788;23.942;2022-09-28T03:45:55;5.75;;;3.72;;
57105;SDS011;62662;56.788;23.942;2022-09-28T03:48:24;6.97;;;4.80;;
57105;SDS011;62662;56.788;23.942;2022-09-28T03:51:02;5.05;;;4.00;;
57105;SDS011;62662;56.788;23.942;2022-09-28T03:53:32;5.30;;;4.45;;
57105;SDS011;62662;56.788;23.942;2022-09-28T03:56:07;6.47;;;4.10;;
57105;SDS011;62662;56.788;23.942;2022-09-28T03:58:39;4.93;;;4.18;;
57105;SDS011;62662;56.788;23.942;2022-09-28T04:01:07;5.78;;;4.25;;
57105;SDS011;62662;56.788;23.942;2022-09-28T04:03:42;13.52;;;4.50;;
57105;SDS011;62662;56.788;23.942;2022-09-28T04:06:09;5.30;;;4.75;;
57105;SDS011;62662;56.788;23.942;2022-09-28T04:08:36;4.85;;;4.35;;
57105;SDS011;62662;56.788;23.942;2022-09-28T04:11:04;5.28;;;4.03;;
57105;SDS011;62662;56.788;23.942;2022-09-28T04:13:31;7.25;;;4.82;;
57105;SDS011;62662;56.788;23.942;2022-09-28T04:15:59;6.78;;;4.20;;
57105;SDS011;62662;56.788;23.942;2022-09-28T04:18:27;9.32;;;4.60;;
57105;SDS011;62662;56.788;23.942;2022-09-28T04:20:59;5.15;;;4.28;;
57105;SDS011;62662;56.788;23.942;2022-09-28T04:23:35;6.45;;;4.57;;
57105;SDS011;62662;56.788;23.942;2022-09-28T04:26:05;5.15;;;4.10;;
57105;SDS011;62662;56.788;23.942;2022-09-28T04:28:34;4.88;;;3.97;;
57105;SDS011;62662;56.788;23.942;2022-09-28T04:31:20;6.63;;;4.47;;
57105;SDS011;62662;56.788;23.942;2022-09-28T04:33:49;6.35;;;4.55;;
57105;SDS011;62662;56.788;23.942;2022-09-28T04:36:19;7.57;;;5.15;;
57105;SDS011;62662;56.788;23.942;2022-09-28T04:38:46;8.52;;;5.30;;
57105;SDS011;62662;56.788;23.942;2022-09-28T04:41:23;7.00;;;5.38;;
57105;SDS011;62662;56.788;23.942;2022-09-28T04:43:50;9.63;;;5.55;;
57105;SDS011;62662;56.788;23.942;2022-09-28T04:46:30;10.70;;;4.75;;
57105;SDS011;62662;56.788;23.942;2022-09-28T04:49:09;5.10;;;4.53;;
57105;SDS011;62662;56.788;23.942;2022-09-28T04:52:17;6.82;;;4.05;;
57105;SDS011;62662;56.788;23.942;2022-09-28T04:55:36;4.90;;;4.40;;
57105;SDS011;62662;56.788;23.942;2022-09-28T05:14:52;4.40;;;4.00;;
57105;SDS011;62662;56.788;23.942;2022-09-28T05:18:16;4.95;;;4.05;;
57105;SDS011;62662;56.788;23.942;2022-09-28T05:21:20;7.32;;;3.75;;
57105;SDS011;62662;56.788;23.942;2022-09-28T05:24:16;7.35;;;4.00;;
57105;SDS011;62662;56.788;23.942;2022-09-28T05:27:31;4.85;;;3.67;;
57105;SDS011;62662;56.788;23.942;2022-09-28T05:30:15;5.22;;;3.28;;
57105;SDS011;62662;56.788;23.942;2022-09-28T05:33:03;3.67;;;3.28;;
57105;SDS011;62662;56.788;23.942;2022-09-28T05:36:12;4.38;;;2.85;;
57105;SDS011;62662;56.788;23.942;2022-09-28T05:42:35;4.68;;;3.50;;
57105;SDS011;62662;56.788;23.942;2022-09-28T05:45:14;5.55;;;3.25;;
57105;SDS011;62662;56.788;23.942;2022-09-28T05:47:45;4.35;;;3.20;;
57105;SDS011;62662;56.788;23.942;2022-09-28T05:50:22;4.45;;;3.00;;
57105;SDS011;62662;56.788;23.942;2022-09-28T06:16:25;4.88;;;3.08;;
57105;SDS011;62662;56.788;23.942;2022-09-28T06:26:26;6.50;;;3.22;;
57105;SDS011;62662;56.788;23.942;2022-09-28T06:30:05;6.97;;;2.80;;
57105;SDS011;62662;56.788;23.942;2022-09-28T06:33:26;5.65;;;2.47;;
57105;SDS011;62662;56.788;23.942;2022-09-28T06:41:34;2.50;;;2.00;;
57105;SDS011;62662;56.788;23.942;2022-09-28T06:45:29;2.55;;;2.10;;
57105;SDS011;62662;56.788;23.942;2022-09-28T06:48:58;2.90;;;1.65;;
57105;SDS011;62662;56.788;23.942;2022-09-28T06:51:31;2.83;;;2.15;;
57105;SDS011;62662;56.788;23.942;2022-09-28T06:54:18;4.00;;;1.77;;
57105;SDS011;62662;56.788;23.942;2022-09-28T07:32:35;2.60;;;1.65;;
57105;SDS011;62662;56.788;23.942;2022-09-28T07:35:04;6.65;;;1.73;;
57105;SDS011;62662;56.788;23.942;2022-09-28T07:37:36;6.32;;;2.30;;
57105;SDS011;62662;56.788;23.942;2022-09-28T07:40:31;2.80;;;1.73;;
57105;SDS011;62662;56.788;23.942;2022-09-28T07:43:28;2.42;;;1.80;;
57105;SDS011;62662;56.788;23.942;2022-09-28T07:46:11;5.28;;;1.73;;
57105;SDS011;62662;56.788;23.942;2022-09-28T07:49:02;3.35;;;1.80;;
57105;SDS011;62662;56.788;23.942;2022-09-28T07:54:53;2.28;;;1.80;;
57105;SDS011;62662;56.788;23.942;2022-09-28T08:16:42;2.47;;;1.73;;
57105;SDS011;62662;56.788;23.942;2022-09-28T08:19:26;3.28;;;1.85;;
57105;SDS011;62662;56.788;23.942;2022-09-28T08:22:53;2.60;;;1.88;;
57105;SDS011;62662;56.788;23.942;2022-09-28T08:25:50;2.00;;;1.50;;
57105;SDS011;62662;56.788;23.942;2022-09-28T08:29:02;2.60;;;1.50;;
57105;SDS011;62662;56.788;23.942;2022-09-28T08:31:46;3.90;;;1.70;;
57105;SDS011;62662;56.788;23.942;2022-09-28T08:34:39;3.35;;;1.42;;
57105;SDS011;62662;56.788;23.942;2022-09-28T08:37:10;4.60;;;1.50;;
57105;SDS011;62662;56.788;23.942;2022-09-28T08:40:12;2.92;;;1.70;;
57105;SDS011;62662;56.788;23.942;2022-09-28T08:42:54;2.60;;;1.42;;
57105;SDS011;62662;56.788;23.942;2022-09-28T08:45:49;2.08;;;1.50;;
57105;SDS011;62662;56.788;23.942;2022-09-28T08:48:19;1.77;;;1.38;;
57105;SDS011;62662;56.788;23.942;2022-09-28T08:55:10;3.47;;;1.30;;
57105;SDS011;62662;56.788;23.942;2022-09-28T08:58:34;1.33;;;1.23;;
57105;SDS011;62662;56.788;23.942;2022-09-28T09:01:12;2.55;;;1.35;;
57105;SDS011;62662;56.788;23.942;2022-09-28T09:03:52;2.75;;;1.48;;
57105;SDS011;62662;56.788;23.942;2022-09-28T09:12:43;3.90;;;1.40;;
57105;SDS011;62662;56.788;23.942;2022-09-28T09:18:26;3.08;;;1.35;;
57105;SDS011;62662;56.788;23.942;2022-09-28T09:22:10;2.05;;;1.33;;
57105;SDS011;62662;56.788;23.942;2022-09-28T09:27:03;2.60;;;1.67;;
57105;SDS011;62662;56.788;23.942;2022-09-28T09:30:00;2.10;;;1.45;;
57105;SDS011;62662;56.788;23.942;2022-09-28T09:35:46;1.90;;;1.50;;
57105;SDS011;62662;56.788;23.942;2022-09-28T09:47:40;1.83;;;1.20;;
57105;SDS011;62662;56.788;23.942;2022-09-28T09:54:41;1.73;;;1.30;;
57105;SDS011;62662;56.788;23.942;2022-09-28T09:58:17;3.90;;;1.60;;
57105;SDS011;62662;56.788;23.942;2022-09-28T10:08:22;2.03;;;1.52;;
57105;SDS011;62662;56.788;23.942;2022-09-28T10:11:13;2.63;;;1.75;;
57105;SDS011;62662;56.788;23.942;2022-09-28T10:14:20;4.95;;;1.65;;
57105;SDS011;62662;56.788;23.942;2022-09-28T10:17:17;3.95;;;1.33;;
57105;SDS011;62662;56.788;23.942;2022-09-28T10:20:21;1.55;;;1.33;;
57105;SDS011;62662;56.788;23.942;2022-09-28T10:23:27;1.95;;;1.55;;
57105;SDS011;62662;56.788;23.942;2022-09-28T10:29:48;1.55;;;1.10;;
57105;SDS011;62662;56.788;23.942;2022-09-28T10:32:52;5.38;;;1.48;;
57105;SDS011;62662;56.788;23.942;2022-09-28T10:35:29;2.45;;;1.30;;
57105;SDS011;62662;56.788;23.942;2022-09-28T10:38:16;2.40;;;1.50;;
57105;SDS011;62662;56.788;23.942;2022-09-28T10:40:47;1.80;;;1.55;;
57105;SDS011;62662;56.788;23.942;2022-09-28T10:43:38;3.88;;;1.83;;
57105;SDS011;62662;56.788;23.942;2022-09-28T10:46:32;1.95;;;1.20;;
57105;SDS011;62662;56.788;23.942;2022-09-28T10:49:20;1.80;;;1.48;;
57105;SDS011;62662;56.788;23.942;2022-09-28T10:52:48;1.58;;;1.40;;
57105;SDS011;62662;56.788;23.942;2022-09-28T11:16:29;3.83;;;1.48;;
57105;SDS011;62662;56.788;23.942;2022-09-28T11:19:05;1.42;;;1.10;;
57105;SDS011;62662;56.788;23.942;2022-09-28T11:21:47;2.80;;;1.67;;
57105;SDS011;62662;56.788;23.942;2022-09-28T11:26:57;2.92;;;1.65;;
57105;SDS011;62662;56.788;23.942;2022-09-28T11:32:31;1.52;;;1.20;;
57105;SDS011;62662;56.788;23.942;2022-09-28T11:35:14;4.00;;;1.50;;
57105;SDS011;62662;56.788;23.942;2022-09-28T11:47:17;1.63;;;1.50;;
57105;SDS011;62662;56.788;23.942;2022-09-28T11:53:23;2.58;;;1.52;;
57105;SDS011;62662;56.788;23.942;2022-09-28T11:56:32;2.17;;;1.60;;
57105;SDS011;62662;56.788;23.942;2022-09-28T11:59:33;2.63;;;1.60;;
57105;SDS011;62662;56.788;23.942;2022-09-28T12:02:53;3.60;;;2.47;;
57105;SDS011;62662;56.788;23.942;2022-09-28T12:12:34;17.77;;;7.27;;
57105;SDS011;62662;56.788;23.942;2022-09-28T12:18:42;4.57;;;1.95;;
57105;SDS011;62662;56.788;23.942;2022-09-28T12:21:44;3.47;;;1.38;;
57105;SDS011;62662;56.788;23.942;2022-09-28T12:25:05;2.17;;;1.40;;
57105;SDS011;62662;56.788;23.942;2022-09-28T12:27:56;2.70;;;1.33;;
57105;SDS011;62662;56.788;23.942;2022-09-28T12:30:49;1.70;;;1.40;;
57105;SDS011;62662;56.788;23.942;2022-09-28T12:33:33;1.90;;;1.25;;
57105;SDS011;62662;56.788;23.942;2022-09-28T12:39:09;1.88;;;1.40;;
57105;SDS011;62662;56.788;23.942;2022-09-28T12:42:23;1.80;;;1.50;;
57105;SDS011;62662;56.788;23.942;2022-09-28T13:00:19;2.10;;;1.45;;
57105;SDS011;62662;56.788;23.942;2022-09-28T13:06:11;2.70;;;1.30;;
57105;SDS011;62662;56.788;23.942;2022-09-28T13:14:05;3.78;;;1.67;;
57105;SDS011;62662;56.788;23.942;2022-09-28T13:22:35;2.30;;;1.70;;
57105;SDS011;62662;56.788;23.942;2022-09-28T13:25:13;2.33;;;1.73;;
57105;SDS011;62662;56.788;23.942;2022-09-28T13:27:54;3.83;;;1.85;;
57105;SDS011;62662;56.788;23.942;2022-09-28T13:30:27;2.22;;;1.60;;
57105;SDS011;62662;56.788;23.942;2022-09-28T13:32:56;1.98;;;1.67;;
57105;SDS011;62662;56.788;23.942;2022-09-28T13:35:28;2.88;;;1.70;;
57105;SDS011;62662;56.788;23.942;2022-09-28T13:43:30;4.82;;;2.10;;
57105;SDS011;62662;56.788;23.942;2022-09-28T13:49:17;2.65;;;2.08;;
57105;SDS011;62662;56.788;23.942;2022-09-28T14:02:39;3.70;;;1.80;;
57105;SDS011;62662;56.788;23.942;2022-09-28T14:16:34;2.60;;;2.05;;
57105;SDS011;62662;56.788;23.942;2022-09-28T14:30:22;2.33;;;1.95;;
57105;SDS011;62662;56.788;23.942;2022-09-28T14:33:03;2.72;;;1.95;;
57105;SDS011;62662;56.788;23.942;2022-09-28T14:35:54;2.47;;;2.05;;
57105;SDS011;62662;56.788;23.942;2022-09-28T14:38:36;2.00;;;1.50;;
57105;SDS011;62662;56.788;23.942;2022-09-28T14:41:32;2.72;;;1.80;;
57105;SDS011;62662;56.788;23.942;2022-09-28T14:44:09;4.13;;;1.83;;
57105;SDS011;62662;56.788;23.942;2022-09-28T14:46:43;2.80;;;1.65;;
57105;SDS011;62662;56.788;23.942;2022-09-28T14:51:56;2.90;;;2.00;;
57105;SDS011;62662;56.788;23.942;2022-09-28T14:57:24;2.63;;;2.13;;
57105;SDS011;62662;56.788;23.942;2022-09-28T14:59:54;3.97;;;1.75;;
57105;SDS011;62662;56.788;23.942;2022-09-28T15:02:30;4.97;;;1.85;;
57105;SDS011;62662;56.788;23.942;2022-09-28T15:05:15;2.80;;;2.00;;
57105;SDS011;62662;56.788;23.942;2022-09-28T15:07:46;2.28;;;1.50;;
57105;SDS011;62662;56.788;23.942;2022-09-28T15:13:03;1.67;;;1.30;;
57105;SDS011;62662;56.788;23.942;2022-09-28T15:15:45;3.70;;;1.75;;
57105;SDS011;62662;56.788;23.942;2022-09-28T15:18:34;1.80;;;1.48;;
57105;SDS011;62662;56.788;23.942;2022-09-28T15:21:13;2.70;;;1.80;;
57105;SDS011;62662;56.788;23.942;2022-09-28T15:23:42;4.80;;;2.03;;
57105;SDS011;62662;56.788;23.942;2022-09-28T15:26:21;4.22;;;1.70;;
57105;SDS011;62662;56.788;23.942;2022-09-28T15:28:54;3.58;;;2.08;;
57105;SDS011;62662;56.788;23.942;2022-09-28T15:31:23;4.50;;;1.80;;
57105;SDS011;62662;56.788;23.942;2022-09-28T15:33:52;6.32;;;2.35;;
57105;SDS011;62662;56.788;23.942;2022-09-28T15:36:40;3.65;;;2.55;;
57105;SDS011;62662;56.788;23.942;2022-09-28T15:39:19;2.92;;;2.20;;
57105;SDS011;62662;56.788;23.942;2022-09-28T15:41:52;3.42;;;2.25;;
57105;SDS011;62662;56.788;23.942;2022-09-28T15:44:29;2.65;;;2.22;;
57105;SDS011;62662;56.788;23.942;2022-09-28T15:47:09;3.33;;;2.75;;
57105;SDS011;62662;56.788;23.942;2022-09-28T15:50:03;3.35;;;2.70;;
57105;SDS011;62662;56.788;23.942;2022-09-28T15:55:27;8.93;;;2.80;;
57105;SDS011;62662;56.788;23.942;2022-09-28T16:00:44;4.25;;;2.40;;
57105;SDS011;62662;56.788;23.942;2022-09-28T16:13:56;5.45;;;3.20;;
57105;SDS011;62662;56.788;23.942;2022-09-28T16:16:28;4.68;;;3.38;;
57105;SDS011;62662;56.788;23.942;2022-09-28T16:21:56;5.55;;;3.65;;
57105;SDS011;62662;56.788;23.942;2022-09-28T16:24:26;5.13;;;3.33;;
57105;SDS011;62662;56.788;23.942;2022-09-28T16:27:02;3.97;;;2.92;;
57105;SDS011;62662;56.788;23.942;2022-09-28T16:29:36;7.05;;;4.05;;
57105;SDS011;62662;56.788;23.942;2022-09-28T16:37:38;4.30;;;3.90;;
57105;SDS011;62662;56.788;23.942;2022-09-28T16:40:09;7.20;;;3.30;;
57105;SDS011;62662;56.788;23.942;2022-09-28T16:42:37;5.65;;;3.80;;
57105;SDS011;62662;56.788;23.942;2022-09-28T16:45:21;6.45;;;3.35;;
57105;SDS011;62662;56.788;23.942;2022-09-28T16:47:51;5.80;;;3.80;;
57105;SDS011;62662;56.788;23.942;2022-09-28T16:50:23;5.68;;;3.80;;
57105;SDS011;62662;56.788;23.942;2022-09-28T16:52:56;5.50;;;2.90;;
57105;SDS011;62662;56.788;23.942;2022-09-28T16:55:50;5.88;;;3.58;;
57105;SDS011;62662;56.788;23.942;2022-09-28T16:58:18;6.55;;;3.33;;
57105;SDS011;62662;56.788;23.942;2022-09-28T17:00:47;3.85;;;3.03;;
57105;SDS011;62662;56.788;23.942;2022-09-28T17:03:16;4.97;;;3.60;;
57105;SDS011;62662;56.788;23.942;2022-09-28T17:05:46;4.20;;;3.38;;
57105;SDS011;62662;56.788;23.942;2022-09-28T17:08:15;4.97;;;3.78;;
57105;SDS011;62662;56.788;23.942;2022-09-28T17:10:47;5.50;;;3.17;;
57105;SDS011;62662;56.788;23.942;2022-09-28T17:13:40;7.00;;;3.55;;
57105;SDS011;62662;56.788;23.942;2022-09-28T17:16:14;5.68;;;3.65;;
57105;SDS011;62662;56.788;23.942;2022-09-28T17:18:46;4.00;;;3.60;;
57105;SDS011;62662;56.788;23.942;2022-09-28T17:21:18;4.13;;;3.47;;
57105;SDS011;62662;56.788;23.942;2022-09-28T17:26:35;5.35;;;4.20;;
57105;SDS011;62662;56.788;23.942;2022-09-28T17:29:04;5.65;;;4.32;;
57105;SDS011;62662;56.788;23.942;2022-09-28T17:31:35;6.45;;;4.13;;
57105;SDS011;62662;56.788;23.942;2022-09-28T17:34:24;5.57;;;4.45;;
57105;SDS011;62662;56.788;23.942;2022-09-28T17:36:52;5.90;;;4.20;;
57105;SDS011;62662;56.788;23.942;2022-09-28T17:39:39;8.27;;;4.05;;
57105;SDS011;62662;56.788;23.942;2022-09-28T17:44:43;9.23;;;4.20;;
57105;SDS011;62662;56.788;23.942;2022-09-28T17:47:10;6.18;;;4.28;;
57105;SDS011;62662;56.788;23.942;2022-09-28T17:49:39;7.13;;;4.60;;
57105;SDS011;62662;56.788;23.942;2022-09-28T17:52:07;5.65;;;3.85;;
57105;SDS011;62662;56.788;23.942;2022-09-28T17:54:36;5.53;;;4.38;;
57105;SDS011;62662;56.788;23.942;2022-09-28T17:57:04;6.28;;;4.13;;
57105;SDS011;62662;56.788;23.942;2022-09-28T17:59:32;7.07;;;3.72;;
57105;SDS011;62662;56.788;23.942;2022-09-28T18:02:01;7.03;;;4.25;;
57105;SDS011;62662;56.788;23.942;2022-09-28T18:04:30;5.60;;;3.97;;
57105;SDS011;62662;56.788;23.942;2022-09-28T18:07:17;6.57;;;3.95;;
57105;SDS011;62662;56.788;23.942;2022-09-28T18:09:45;6.30;;;4.28;;
57105;SDS011;62662;56.788;23.942;2022-09-28T18:12:13;5.25;;;4.15;;
57105;SDS011;62662;56.788;23.942;2022-09-28T18:14:42;5.03;;;3.72;;
57105;SDS011;62662;56.788;23.942;2022-09-28T18:17:10;4.72;;;3.83;;
57105;SDS011;62662;56.788;23.942;2022-09-28T18:19:41;6.03;;;4.00;;
57105;SDS011;62662;56.788;23.942;2022-09-28T18:22:09;5.80;;;4.63;;
57105;SDS011;62662;56.788;23.942;2022-09-28T18:24:38;5.50;;;4.43;;
57105;SDS011;62662;56.788;23.942;2022-09-28T18:27:08;10.82;;;7.43;;
57105;SDS011;62662;56.788;23.942;2022-09-28T18:29:37;20.90;;;12.38;;
57105;SDS011;62662;56.788;23.942;2022-09-28T18:32:05;24.30;;;14.07;;
57105;SDS011;62662;56.788;23.942;2022-09-28T18:34:34;14.55;;;9.38;;
57105;SDS011;62662;56.788;23.942;2022-09-28T18:37:10;13.32;;;7.88;;
57105;SDS011;62662;56.788;23.942;2022-09-28T18:39:40;7.18;;;5.88;;
57105;SDS011;62662;56.788;23.942;2022-09-28T18:42:08;8.82;;;5.80;;
57105;SDS011;62662;56.788;23.942;2022-09-28T18:44:36;7.88;;;4.82;;
57105;SDS011;62662;56.788;23.942;2022-09-28T18:47:04;6.00;;;4.88;;
57105;SDS011;62662;56.788;23.942;2022-09-28T18:49:31;7.18;;;4.93;;
57105;SDS011;62662;56.788;23.942;2022-09-28T18:52:03;5.15;;;4.55;;
57105;SDS011;62662;56.788;23.942;2022-09-28T18:54:31;7.15;;;5.03;;
57105;SDS011;62662;56.788;23.942;2022-09-28T18:57:00;6.10;;;5.13;;
57105;SDS011;62662;56.788;23.942;2022-09-28T18:59:28;8.15;;;4.50;;
57105;SDS011;62662;56.788;23.942;2022-09-28T19:01:56;6.38;;;4.93;;
57105;SDS011;62662;56.788;23.942;2022-09-28T19:07:13;8.13;;;5.97;;
57105;SDS011;62662;56.788;23.942;2022-09-28T19:09:44;9.40;;;5.97;;
57105;SDS011;62662;56.788;23.942;2022-09-28T19:12:11;6.63;;;5.05;;
57105;SDS011;62662;56.788;23.942;2022-09-28T19:14:39;7.07;;;5.40;;
57105;SDS011;62662;56.788;23.942;2022-09-28T19:17:08;5.78;;;4.15;;
57105;SDS011;62662;56.788;23.942;2022-09-28T19:19:37;5.95;;;4.53;;
57105;SDS011;62662;56.788;23.942;2022-09-28T19:22:10;7.57;;;4.40;;
57105;SDS011;62662;56.788;23.942;2022-09-28T19:24:38;6.30;;;4.70;;
57105;SDS011;62662;56.788;23.942;2022-09-28T19:27:06;5.35;;;4.30;;
57105;SDS011;62662;56.788;23.942;2022-09-28T19:29:34;7.60;;;4.43;;
57105;SDS011;62662;56.788;23.942;2022-09-28T19:32:02;5.75;;;4.85;;
57105;SDS011;62662;56.788;23.942;2022-09-28T19:34:30;5.78;;;4.22;;
57105;SDS011;62662;56.788;23.942;2022-09-28T19:37:00;8.57;;;5.00;;
57105;SDS011;62662;56.788;23.942;2022-09-28T19:39:32;6.35;;;4.65;;
57105;SDS011;62662;56.788;23.942;2022-09-28T19:42:02;8.00;;;4.72;;
57105;SDS011;62662;56.788;23.942;2022-09-28T19:47:07;7.63;;;4.67;;
57105;SDS011;62662;56.788;23.942;2022-09-28T19:49:38;5.63;;;4.15;;
57105;SDS011;62662;56.788;23.942;2022-09-28T19:52:08;6.05;;;4.68;;
57105;SDS011;62662;56.788;23.942;2022-09-28T19:54:45;6.32;;;4.70;;
57105;SDS011;62662;56.788;23.942;2022-09-28T19:59:51;6.78;;;5.15;;
57105;SDS011;62662;56.788;23.942;2022-09-28T20:02:31;9.10;;;4.93;;
57105;SDS011;62662;56.788;23.942;2022-09-28T20:05:00;6.72;;;5.20;;
57105;SDS011;62662;56.788;23.942;2022-09-28T20:07:32;7.65;;;4.93;;
57105;SDS011;62662;56.788;23.942;2022-09-28T20:10:05;6.57;;;5.32;;
57105;SDS011;62662;56.788;23.942;2022-09-28T20:12:33;8.93;;;4.70;;
57105;SDS011;62662;56.788;23.942;2022-09-28T20:15:01;8.43;;;4.47;;
57105;SDS011;62662;56.788;23.942;2022-09-28T20:17:34;6.07;;;4.93;;
57105;SDS011;62662;56.788;23.942;2022-09-28T20:20:05;6.22;;;4.70;;
57105;SDS011;62662;56.788;23.942;2022-09-28T20:22:33;5.65;;;4.97;;
57105;SDS011;62662;56.788;23.942;2022-09-28T20:25:01;7.25;;;4.43;;
57105;SDS011;62662;56.788;23.942;2022-09-28T20:27:29;9.60;;;5.10;;
57105;SDS011;62662;56.788;23.942;2022-09-28T20:29:57;5.43;;;4.80;;
57105;SDS011;62662;56.788;23.942;2022-09-28T20:32:25;5.55;;;4.47;;
57105;SDS011;62662;56.788;23.942;2022-09-28T20:34:52;5.32;;;4.82;;
57105;SDS011;62662;56.788;23.942;2022-09-28T20:37:23;10.23;;;5.50;;
57105;SDS011;62662;56.788;23.942;2022-09-28T20:39:52;7.75;;;5.28;;
57105;SDS011;62662;56.788;23.942;2022-09-28T20:42:20;8.10;;;5.28;;
57105;SDS011;62662;56.788;23.942;2022-09-28T20:44:47;6.63;;;4.78;;
57105;SDS011;62662;56.788;23.942;2022-09-28T20:47:15;6.35;;;5.72;;
57105;SDS011;62662;56.788;23.942;2022-09-28T20:49:43;7.72;;;6.15;;
57105;SDS011;62662;56.788;23.942;2022-09-28T20:52:12;11.38;;;5.38;;
57105;SDS011;62662;56.788;23.942;2022-09-28T20:54:40;12.75;;;6.13;;
57105;SDS011;62662;56.788;23.942;2022-09-28T20:57:11;10.90;;;5.75;;
57105;SDS011;62662;56.788;23.942;2022-09-28T20:59:46;8.63;;;5.57;;
57105;SDS011;62662;56.788;23.942;2022-09-28T21:02:19;7.25;;;5.60;;
57105;SDS011;62662;56.788;23.942;2022-09-28T21:04:51;8.13;;;4.93;;
57105;SDS011;62662;56.788;23.942;2022-09-28T21:07:19;5.65;;;5.00;;
57105;SDS011;62662;56.788;23.942;2022-09-28T21:09:46;5.80;;;4.32;;
57105;SDS011;62662;56.788;23.942;2022-09-28T21:12:17;6.22;;;4.78;;
57105;SDS011;62662;56.788;23.942;2022-09-28T21:14:46;8.13;;;5.10;;
57105;SDS011;62662;56.788;23.942;2022-09-28T21:17:14;5.47;;;4.75;;
57105;SDS011;62662;56.788;23.942;2022-09-28T21:19:42;6.05;;;4.60;;
57105;SDS011;62662;56.788;23.942;2022-09-28T21:22:09;4.35;;;3.65;;
57105;SDS011;62662;56.788;23.942;2022-09-28T21:24:37;8.40;;;5.07;;
57105;SDS011;62662;56.788;23.942;2022-09-28T21:27:04;7.80;;;5.05;;
57105;SDS011;62662;56.788;23.942;2022-09-28T21:29:32;7.78;;;5.00;;
57105;SDS011;62662;56.788;23.942;2022-09-28T21:32:00;7.60;;;4.82;;
57105;SDS011;62662;56.788;23.942;2022-09-28T21:34:27;5.85;;;4.80;;
57105;SDS011;62662;56.788;23.942;2022-09-28T21:36:55;7.85;;;4.82;;